Time;durP1;ratioP1;P1;durP2;ratioP2;P2;SDS_P1;SDS_P2;PMS_P1;PMS_P2;Temp;Humidity;BMP_temperature;BMP_pressure;BME280_temperature;BME280_humidity;BME280_pressure;Samples;Min_cycle;Max_cycle;Signal;HPM_P1;HPM_P2
2022/05/26 00:02:17;;;;;;;4.00;2.90;;;21.20;48.20;;;;;;4957280;28;20711;-73
2022/05/26 00:04:45;;;;;;;3.00;2.70;;;21.20;47.60;;;;;;4957390;28;20269;-73
2022/05/26 00:07:12;;;;;;;3.65;3.10;;;21.10;47.60;;;;;;4958694;28;20735;-73
2022/05/26 00:09:40;;;;;;;3.90;3.30;;;21.10;47.60;;;;;;4957510;28;20233;-73
2022/05/26 00:12:07;;;;;;;3.10;2.80;;;21.10;47.70;;;;;;4958331;28;20222;-72
2022/05/26 00:14:34;;;;;;;2.95;2.50;;;21.10;47.90;;;;;;4958432;28;20193;-73
2022/05/26 00:17:01;;;;;;;4.40;3.10;;;21.10;47.90;;;;;;4957047;28;20217;-73
2022/05/26 00:19:30;;;;;;;3.00;2.70;;;21.10;48.00;;;;;;4956772;28;20227;-72
2022/05/26 00:21:57;;;;;;;4.38;3.30;;;21.10;48.00;;;;;;4956706;29;20194;-72
2022/05/26 00:24:24;;;;;;;3.63;3.05;;;21.10;48.10;;;;;;4958057;28;20199;-73
2022/05/26 00:26:52;;;;;;;3.63;3.00;;;21.10;48.20;;;;;;4957995;28;20206;-73
2022/05/26 00:29:19;;;;;;;3.35;2.72;;;21.00;48.10;;;;;;4956587;28;20582;-73
2022/05/26 00:31:46;;;;;;;3.00;2.70;;;21.00;48.20;;;;;;4956745;28;20708;-73
2022/05/26 00:34:13;;;;;;;3.38;2.80;;;21.00;48.20;;;;;;4956561;28;20198;-71
2022/05/26 00:36:43;;;;;;;3.40;2.75;;;21.00;48.30;;;;;;4956288;28;20202;-73
2022/05/26 00:39:12;;;;;;;4.13;2.72;;;21.00;48.40;;;;;;4956184;28;20246;-72
2022/05/26 00:41:41;;;;;;;2.85;2.42;;;21.00;48.40;;;;;;4957730;28;20187;-72
2022/05/26 00:44:08;;;;;;;2.75;2.50;;;21.00;48.40;;;;;;4956337;28;20203;-73
2022/05/26 00:46:38;;;;;;;2.95;2.65;;;21.00;48.40;;;;;;4957519;28;20301;-73
2022/05/26 00:49:06;;;;;;;3.15;2.85;;;21.00;48.50;;;;;;4956174;28;20270;-71
2022/05/26 00:51:36;;;;;;;3.40;2.53;;;21.00;48.50;;;;;;4956017;28;20223;-72
2022/05/26 00:54:07;;;;;;;2.92;2.63;;;21.00;48.50;;;;;;4956037;29;20222;-72
2022/05/26 00:56:36;;;;;;;3.20;2.38;;;21.00;48.50;;;;;;4957769;28;20175;-73
2022/05/26 00:59:07;;;;;;;3.70;2.50;;;20.90;48.50;;;;;;4956970;28;20218;-72
2022/05/26 01:01:35;;;;;;;2.78;2.50;;;21.00;48.60;;;;;;4956115;29;20206;-72
2022/05/26 01:04:05;;;;;;;2.90;2.60;;;21.00;48.50;;;;;;4957195;28;20206;-72
2022/05/26 01:06:35;;;;;;;3.05;2.70;;;20.90;48.50;;;;;;4957141;29;20206;-71
2022/05/26 01:09:03;;;;;;;3.80;2.38;;;20.90;49.10;;;;;;4955805;28;20733;-72
2022/05/26 01:11:33;;;;;;;3.13;2.40;;;20.90;48.60;;;;;;4955661;28;20215;-72
2022/05/26 01:14:02;;;;;;;3.22;2.60;;;20.90;48.60;;;;;;4955662;29;20575;-72
2022/05/26 01:16:31;;;;;;;2.95;2.50;;;20.90;48.60;;;;;;4956821;28;20199;-72
2022/05/26 01:19:04;;;;;;;2.88;2.55;;;20.90;48.60;;;;;;4955702;28;20219;-72
2022/05/26 01:21:33;;;;;;;4.35;2.40;;;20.90;48.70;;;;;;4956888;28;20172;-72
2022/05/26 01:24:26;;;;;;;3.95;2.60;;;20.90;48.70;;;;;;4956644;28;20653;-73
2022/05/26 01:27:23;;;;;;;2.67;2.40;;;20.90;48.70;;;;;;4934335;28;20242;-73
2022/05/26 01:30:19;;;;;;;2.35;2.15;;;20.90;48.70;;;;;;4955329;28;20253;-73
2022/05/26 01:33:26;;;;;;;3.28;2.50;;;20.90;48.70;;;;;;4955193;28;20743;-73
2022/05/26 01:36:15;;;;;;;2.50;2.30;;;20.80;48.80;;;;;;4951612;29;20237;-73
2022/05/26 01:38:49;;;;;;;2.83;2.55;;;20.80;48.80;;;;;;4956273;28;20242;-72
2022/05/26 01:41:20;;;;;;;2.78;2.35;;;20.80;48.90;;;;;;4955217;28;20199;-71
2022/05/26 01:43:50;;;;;;;3.75;2.40;;;20.80;48.80;;;;;;4955259;28;20187;-72
2022/05/26 01:46:20;;;;;;;2.53;2.30;;;20.80;48.70;;;;;;4956474;28;20667;-73
2022/05/26 01:48:50;;;;;;;2.88;2.30;;;20.80;48.90;;;;;;4955240;28;20639;-72
2022/05/26 01:51:21;;;;;;;2.45;2.25;;;20.80;48.90;;;;;;4956480;28;20191;-72
2022/05/26 01:53:51;;;;;;;2.50;2.30;;;20.80;48.90;;;;;;4955679;29;20183;-73
2022/05/26 01:56:22;;;;;;;2.83;2.10;;;20.80;49.00;;;;;;4956352;28;20193;-73
2022/05/26 01:58:50;;;;;;;2.58;2.38;;;20.70;48.90;;;;;;4954638;28;20237;-72
2022/05/26 02:01:19;;;;;;;3.20;2.08;;;20.80;49.10;;;;;;4956476;28;20179;-72
2022/05/26 02:03:48;;;;;;;3.58;2.10;;;20.80;49.10;;;;;;4954823;28;20194;-73
2022/05/26 02:06:20;;;;;;;2.88;2.30;;;20.70;49.00;;;;;;4955997;28;20195;-72
2022/05/26 02:08:50;;;;;;;2.95;2.22;;;20.70;49.30;;;;;;4955618;28;20195;-72
2022/05/26 02:11:18;;;;;;;2.33;2.00;;;20.70;49.10;;;;;;5159845;23;21255;-72
2022/05/26 02:13:46;;;;;;;3.15;2.20;;;20.70;49.00;;;;;;4993678;28;20189;-72
2022/05/26 02:16:16;;;;;;;2.60;2.25;;;20.70;49.10;;;;;;4993768;28;20198;-72
2022/05/26 02:18:46;;;;;;;2.20;2.00;;;20.70;49.10;;;;;;4994930;28;20194;-72
2022/05/26 02:21:15;;;;;;;3.05;2.20;;;20.70;49.30;;;;;;4988811;28;20253;-72
2022/05/26 02:23:46;;;;;;;2.45;2.10;;;20.70;49.10;;;;;;4975521;28;20194;-72
2022/05/26 02:26:14;;;;;;;2.40;2.17;;;20.70;49.20;;;;;;4973967;28;20264;-73
2022/05/26 02:31:26;;;;;;;2.20;2.00;;;20.70;49.20;;;;;;4954857;28;20733;-72
2022/05/26 02:33:53;;;;;;;2.25;2.05;;;20.70;49.30;;;;;;4973708;28;20333;-72
2022/05/26 02:36:19;;;;;;;2.15;2.00;;;20.60;49.20;;;;;;4975126;28;20217;-72
2022/05/26 02:38:48;;;;;;;2.50;1.95;;;20.60;49.20;;;;;;4973716;28;20202;-72
2022/05/26 02:41:15;;;;;;;2.20;2.00;;;20.60;49.30;;;;;;4974876;28;20218;-73
2022/05/26 02:43:42;;;;;;;2.47;2.28;;;20.60;49.30;;;;;;4973836;28;20205;-72
2022/05/26 02:46:13;;;;;;;2.25;2.05;;;20.60;49.30;;;;;;4973798;28;20212;-72
2022/05/26 02:48:53;;;;;;;2.35;2.10;;;20.60;49.30;;;;;;4973698;28;20205;-72
2022/05/26 02:51:24;;;;;;;2.05;1.88;;;20.60;49.20;;;;;;4975296;28;20240;-72
2022/05/26 02:53:56;;;;;;;3.38;2.10;;;20.60;49.40;;;;;;4975117;28;20241;-72
2022/05/26 02:56:30;;;;;;;2.33;2.13;;;20.60;49.30;;;;;;4973605;28;20244;-72
2022/05/26 02:59:01;;;;;;;2.13;1.92;;;20.60;49.30;;;;;;4972901;28;20302;-72
2022/05/26 03:01:30;;;;;;;3.65;2.13;;;20.50;49.40;;;;;;4975379;28;20225;-72
2022/05/26 03:03:59;;;;;;;2.30;2.10;;;20.60;49.60;;;;;;4973697;28;20201;-72
2022/05/26 03:06:27;;;;;;;2.78;1.90;;;20.50;49.50;;;;;;4975123;28;20198;-72
2022/05/26 03:08:55;;;;;;;2.05;1.85;;;20.50;49.50;;;;;;4973679;28;20238;-72
2022/05/26 03:11:24;;;;;;;2.65;2.00;;;20.50;49.60;;;;;;4973602;28;20230;-72
2022/05/26 03:13:51;;;;;;;2.97;1.63;;;20.50;49.50;;;;;;4975080;28;20207;-72
2022/05/26 03:16:18;;;;;;;2.00;1.90;;;20.50;49.60;;;;;;4973824;28;20198;-72
2022/05/26 03:18:45;;;;;;;2.05;1.85;;;20.50;49.60;;;;;;4974937;28;20197;-72
2022/05/26 03:21:13;;;;;;;2.70;2.08;;;20.50;49.60;;;;;;4974863;28;20713;-72
2022/05/26 03:23:40;;;;;;;2.10;1.90;;;20.50;49.70;;;;;;4974854;28;20190;-72
2022/05/26 03:26:08;;;;;;;2.65;1.77;;;20.50;49.80;;;;;;4975036;28;20194;-73
2022/05/26 03:28:35;;;;;;;2.83;1.80;;;20.50;49.80;;;;;;4974881;28;20225;-72
2022/05/26 03:31:06;;;;;;;1.98;1.77;;;20.50;49.90;;;;;;4973628;28;20218;-72
2022/05/26 03:41:42;;;;;;;2.08;1.88;;;20.70;49.80;;;;;;4973756;28;20221;-72
2022/05/26 03:44:10;;;;;;;1.75;1.50;;;20.70;49.70;;;;;;4975163;28;20190;-72
2022/05/26 03:46:38;;;;;;;2.20;2.00;;;20.80;49.60;;;;;;4974732;28;20301;-72
2022/05/26 03:49:06;;;;;;;2.13;1.92;;;20.80;49.60;;;;;;4973654;28;20246;-72
2022/05/26 03:51:33;;;;;;;1.80;1.70;;;20.80;50.00;;;;;;4973815;28;20225;-72
2022/05/26 03:54:00;;;;;;;1.88;1.77;;;20.70;49.50;;;;;;4974687;28;20698;-72
2022/05/26 03:56:27;;;;;;;2.20;2.00;;;20.80;49.40;;;;;;4973471;28;20213;-72
2022/05/26 03:58:55;;;;;;;1.88;1.77;;;20.80;49.30;;;;;;4973269;28;20198;-73
2022/05/26 04:01:22;;;;;;;2.20;2.00;;;20.80;49.30;;;;;;4973193;28;20225;-73
2022/05/26 04:03:50;;;;;;;2.00;1.90;;;20.80;49.40;;;;;;4973172;28;20198;-72
2022/05/26 04:06:17;;;;;;;2.05;1.90;;;20.80;49.30;;;;;;4973231;28;20201;-73
2022/05/26 04:08:44;;;;;;;1.80;1.70;;;20.80;49.40;;;;;;4973217;28;20199;-72
2022/05/26 04:11:11;;;;;;;1.92;1.70;;;20.80;49.60;;;;;;4976704;28;20606;-73
2022/05/26 04:13:38;;;;;;;1.80;1.70;;;20.70;49.30;;;;;;4976526;28;20218;-72
2022/05/26 04:16:08;;;;;;;1.88;1.67;;;20.70;50.00;;;;;;4976411;28;20202;-73
2022/05/26 04:18:37;;;;;;;1.63;1.52;;;20.70;49.40;;;;;;4976347;28;20205;-73
2022/05/26 04:21:05;;;;;;;1.98;1.70;;;20.70;49.50;;;;;;4976427;28;20246;-73
2022/05/26 04:23:32;;;;;;;2.28;1.80;;;20.70;49.50;;;;;;4976199;28;20659;-73
2022/05/26 04:25:59;;;;;;;2.05;1.85;;;20.70;49.40;;;;;;4976196;28;20197;-72
2022/05/26 04:28:26;;;;;;;1.90;1.60;;;20.70;49.50;;;;;;4977480;28;20267;-72
2022/05/26 04:30:53;;;;;;;1.60;1.50;;;20.80;49.50;;;;;;4977589;28;20559;-73
2022/05/26 04:33:22;;;;;;;2.33;1.63;;;20.70;49.50;;;;;;4976615;28;20226;-72
2022/05/26 04:35:49;;;;;;;1.70;1.60;;;20.80;49.60;;;;;;4976122;28;20660;-73
2022/05/26 04:38:16;;;;;;;2.30;1.58;;;20.80;49.70;;;;;;4976071;28;20245;-72
2022/05/26 04:40:43;;;;;;;1.90;1.80;;;20.80;49.70;;;;;;4975915;28;20206;-74
2022/05/26 04:43:10;;;;;;;1.70;1.60;;;20.90;50.10;;;;;;4976077;28;20198;-72
2022/05/26 04:45:37;;;;;;;1.80;1.70;;;21.00;49.90;;;;;;4975732;28;20631;-72
2022/05/26 04:48:05;;;;;;;3.05;1.77;;;21.20;49.70;;;;;;4975721;28;20198;-72
2022/05/26 04:50:34;;;;;;;1.88;1.50;;;21.50;49.40;;;;;;4975539;28;20213;-72
2022/05/26 04:53:02;;;;;;;1.70;1.60;;;21.70;48.90;;;;;;4976784;28;20217;-72
2022/05/26 04:55:29;;;;;;;1.67;1.58;;;21.90;48.50;;;;;;4976934;28;20225;-72
2022/05/26 04:57:56;;;;;;;1.60;1.50;;;22.10;48.20;;;;;;4975768;28;20277;-72
2022/05/26 05:00:23;;;;;;;1.70;1.60;;;22.30;47.70;;;;;;4975433;28;20581;-72
2022/05/26 05:02:50;;;;;;;1.80;1.70;;;22.50;47.60;;;;;;4976805;28;20202;-72
2022/05/26 05:05:17;;;;;;;1.73;1.50;;;22.70;47.30;;;;;;4976474;28;20198;-73
2022/05/26 05:07:46;;;;;;;2.85;1.90;;;22.90;47.00;;;;;;4975502;28;20689;-72
2022/05/26 05:10:13;;;;;;;1.52;1.40;;;23.00;46.80;;;;;;4976696;28;20569;-72
2022/05/26 05:12:40;;;;;;;1.77;1.67;;;23.10;46.40;;;;;;4976232;28;20233;-72
2022/05/26 05:15:09;;;;;;;2.72;1.40;;;23.30;46.90;;;;;;4976860;28;20253;-72
2022/05/26 05:17:37;;;;;;;1.70;1.60;;;23.40;46.00;;;;;;4976434;28;20194;-72
2022/05/26 05:20:04;;;;;;;1.63;1.52;;;23.50;45.90;;;;;;4975103;28;20745;-72
2022/05/26 05:22:32;;;;;;;1.85;1.63;;;23.60;45.70;;;;;;4974245;28;20226;-72
2022/05/26 05:25:02;;;;;;;1.90;1.70;;;23.70;45.40;;;;;;4975124;28;20289;-72
2022/05/26 05:27:32;;;;;;;1.70;1.48;;;23.80;45.30;;;;;;4975150;28;20205;-72
2022/05/26 05:30:02;;;;;;;1.60;1.48;;;24.00;45.10;;;;;;4975492;28;20197;-72
2022/05/26 05:32:31;;;;;;;1.75;1.65;;;24.00;45.50;;;;;;4975195;28;20225;-73
2022/05/26 05:35:02;;;;;;;1.80;1.60;;;24.20;44.80;;;;;;4976156;28;20190;-73
2022/05/26 05:37:30;;;;;;;2.28;1.60;;;24.30;44.70;;;;;;4975890;28;20181;-72
2022/05/26 05:39:58;;;;;;;2.35;1.70;;;24.30;44.40;;;;;;4974766;28;20647;-73
2022/05/26 05:42:26;;;;;;;1.75;1.65;;;24.40;44.30;;;;;;4974491;28;20226;-72
2022/05/26 05:44:53;;;;;;;1.50;1.40;;;24.50;44.10;;;;;;4975933;28;20317;-72
2022/05/26 05:47:20;;;;;;;1.58;1.48;;;24.60;44.00;;;;;;4974715;28;20666;-72
2022/05/26 05:49:47;;;;;;;1.63;1.52;;;24.70;43.90;;;;;;4975484;28;20289;-72
2022/05/26 05:52:17;;;;;;;1.90;1.70;;;24.80;43.70;;;;;;4974799;28;20588;-72
2022/05/26 05:54:44;;;;;;;1.70;1.60;;;24.90;43.70;;;;;;4976185;28;20208;-72
2022/05/26 05:57:12;;;;;;;1.75;1.63;;;24.90;43.40;;;;;;4974592;28;20207;-72
2022/05/26 05:59:40;;;;;;;2.30;1.50;;;25.00;43.20;;;;;;4974494;28;20205;-72
2022/05/26 06:02:08;;;;;;;1.50;1.40;;;25.10;43.00;;;;;;4974366;28;20221;-72
2022/05/26 06:04:41;;;;;;;1.70;1.40;;;25.20;42.90;;;;;;4975537;28;20663;-72
2022/05/26 06:07:08;;;;;;;1.48;1.38;;;25.20;42.80;;;;;;4975576;28;20183;-72
2022/05/26 06:09:36;;;;;;;1.80;1.70;;;25.30;42.60;;;;;;4974138;28;20262;-72
2022/05/26 06:12:03;;;;;;;1.50;1.40;;;25.40;42.60;;;;;;4975199;28;20226;-72
2022/05/26 06:14:30;;;;;;;1.63;1.52;;;25.40;42.50;;;;;;4974161;28;20222;-72
2022/05/26 06:16:58;;;;;;;1.95;1.63;;;25.30;42.80;;;;;;4973962;28;20641;-72
2022/05/26 06:19:25;;;;;;;1.45;1.35;;;25.20;43.10;;;;;;4974021;28;20197;-71
2022/05/26 06:21:52;;;;;;;1.70;1.60;;;25.10;43.40;;;;;;4975192;28;20732;-73
2022/05/26 06:24:23;;;;;;;1.85;1.48;;;24.90;43.60;;;;;;4973992;28;20194;-72
2022/05/26 06:26:50;;;;;;;1.65;1.55;;;24.80;43.80;;;;;;4973840;28;20202;-72
2022/05/26 06:37:47;;;;;;;1.50;1.40;;;24.40;44.60;;;;;;4974953;28;20189;-72
2022/05/26 06:40:14;;;;;;;1.40;1.30;;;24.30;44.70;;;;;;4973856;28;20293;-72
2022/05/26 06:42:41;;;;;;;1.63;1.27;;;24.30;44.70;;;;;;4974734;28;20210;-72
2022/05/26 06:45:12;;;;;;;1.50;1.40;;;24.20;44.80;;;;;;4973730;28;20190;-73
2022/05/26 06:47:40;;;;;;;1.60;1.50;;;24.20;44.80;;;;;;4973549;28;20677;-72
2022/05/26 06:50:08;;;;;;;1.70;1.60;;;24.20;45.00;;;;;;4973845;28;20202;-72
2022/05/26 06:52:35;;;;;;;1.50;1.40;;;24.10;44.90;;;;;;4974765;28;20220;-72
2022/05/26 06:55:03;;;;;;;1.70;1.60;;;24.10;45.00;;;;;;4973396;28;20226;-72
2022/05/26 06:57:29;;;;;;;1.50;1.40;;;24.10;45.00;;;;;;4973330;28;20202;-72
2022/05/26 06:59:57;;;;;;;1.27;1.27;;;24.10;45.10;;;;;;4973238;28;20212;-72
2022/05/26 07:02:25;;;;;;;1.60;1.50;;;24.10;45.00;;;;;;4973339;28;20218;-73
2022/05/26 07:04:53;;;;;;;1.60;1.50;;;24.10;45.10;;;;;;4974575;28;20245;-72
2022/05/26 07:07:21;;;;;;;1.50;1.40;;;24.10;45.00;;;;;;4973528;28;20237;-72
2022/05/26 07:09:48;;;;;;;1.50;1.40;;;24.10;45.10;;;;;;4973864;28;20694;-72
2022/05/26 07:12:16;;;;;;;1.50;1.40;;;24.10;45.10;;;;;;4973366;28;20225;-73
2022/05/26 07:14:43;;;;;;;1.50;1.40;;;24.10;45.10;;;;;;4974575;28;20205;-72
2022/05/26 07:17:10;;;;;;;1.50;1.40;;;24.10;45.10;;;;;;4974594;28;20563;-72
2022/05/26 07:19:37;;;;;;;1.55;1.30;;;24.10;45.10;;;;;;4973191;28;20269;-72
2022/05/26 07:22:06;;;;;;;1.27;1.20;;;24.10;45.10;;;;;;4974592;28;20233;-73
2022/05/26 07:24:33;;;;;;;1.40;1.30;;;24.10;45.10;;;;;;4973302;28;20205;-72
2022/05/26 07:27:01;;;;;;;1.50;1.40;;;24.10;45.00;;;;;;4973320;28;20215;-72
2022/05/26 07:29:28;;;;;;;1.40;1.30;;;24.10;45.10;;;;;;4974397;28;20194;-72
2022/05/26 07:31:55;;;;;;;1.40;1.30;;;24.10;45.10;;;;;;4973145;28;20720;-73
2022/05/26 07:34:22;;;;;;;1.50;1.40;;;24.10;45.10;;;;;;4973263;28;20691;-73
2022/05/26 07:42:21;;;;;;;1.38;1.27;;;24.10;45.10;;;;;;4973212;28;20318;-72
2022/05/26 07:44:50;;;;;;;1.50;1.40;;;24.10;45.10;;;;;;4974771;28;20229;-72
2022/05/26 07:47:17;;;;;;;1.60;1.50;;;24.20;45.10;;;;;;4978021;28;20186;-72
2022/05/26 07:49:45;;;;;;;1.65;1.30;;;24.20;45.10;;;;;;4976935;28;20686;-73
2022/05/26 07:52:14;;;;;;;1.50;1.40;;;24.20;45.00;;;;;;4976868;28;20222;-73
2022/05/26 07:54:42;;;;;;;1.50;1.40;;;24.30;45.00;;;;;;4977946;28;20210;-73
2022/05/26 07:57:10;;;;;;;1.60;1.50;;;24.30;45.00;;;;;;4976862;28;20202;-73
2022/05/26 07:59:37;;;;;;;1.50;1.40;;;24.30;44.80;;;;;;4978082;28;20205;-73
2022/05/26 08:02:06;;;;;;;1.40;1.30;;;24.30;44.90;;;;;;4977894;28;20702;-73
2022/05/26 08:04:33;;;;;;;1.50;1.40;;;24.30;44.80;;;;;;4978196;28;20253;-73
2022/05/26 08:07:00;;;;;;;1.60;1.50;;;24.30;44.90;;;;;;4976884;28;20655;-72
2022/05/26 08:09:26;;;;;;;1.52;1.30;;;24.30;45.00;;;;;;4978078;28;20186;-72
2022/05/26 08:11:55;;;;;;;1.48;1.38;;;24.30;45.00;;;;;;4978396;28;20217;-72
2022/05/26 08:14:22;;;;;;;1.50;1.40;;;24.30;45.00;;;;;;4976743;28;20761;-73
2022/05/26 08:16:49;;;;;;;1.40;1.30;;;24.30;45.00;;;;;;4976922;28;20202;-73
2022/05/26 08:19:17;;;;;;;1.27;1.20;;;24.30;45.00;;;;;;4980903;28;20226;-73
2022/05/26 08:21:44;;;;;;;1.42;1.33;;;24.30;45.00;;;;;;4986397;28;20230;-73
2022/05/26 08:24:11;;;;;;;1.23;1.23;;;24.30;44.80;;;;;;4980128;28;20202;-73
2022/05/26 08:26:38;;;;;;;1.35;1.25;;;24.30;44.80;;;;;;4977389;28;20663;-72
2022/05/26 08:29:07;;;;;;;1.23;1.23;;;24.30;44.80;;;;;;4979496;28;20190;-73
2022/05/26 08:31:34;;;;;;;1.50;1.40;;;24.30;44.80;;;;;;5086533;23;20301;-73
2022/05/26 08:34:01;;;;;;;1.50;1.10;;;24.30;44.80;;;;;;4957082;28;20250;-73
2022/05/26 08:36:29;;;;;;;1.40;1.30;;;24.20;42.30;;;;;;4956938;28;20217;-72
2022/05/26 08:38:56;;;;;;;1.20;1.10;;;24.10;42.40;;;;;;4956776;28;20281;-73
2022/05/26 08:41:24;;;;;;;1.77;1.10;;;24.10;42.10;;;;;;4957834;28;20215;-72
2022/05/26 08:43:54;;;;;;;1.00;1.00;;;24.10;42.70;;;;;;4956843;28;20198;-72
2022/05/26 08:46:22;;;;;;;2.00;1.00;;;24.00;42.30;;;;;;5087394;23;20200;-72
2022/05/26 08:48:53;;;;;;;1.45;1.35;;;24.00;41.70;;;;;;4995516;28;20244;-72
2022/05/26 08:51:25;;;;;;;1.65;1.10;;;23.90;41.90;;;;;;5152114;23;20607;-72
2022/05/26 08:53:52;;;;;;;1.10;1.00;;;23.90;42.00;;;;;;4956463;29;20218;-72
2022/05/26 08:56:22;;;;;;;1.30;1.20;;;23.90;42.50;;;;;;5109210;23;20697;-72
2022/05/26 08:58:50;;;;;;;1.30;1.20;;;23.80;42.80;;;;;;4995494;28;20212;-72
2022/05/26 09:01:19;;;;;;;5.47;1.40;;;23.90;43.10;;;;;;4990814;28;20221;-73
2022/05/26 09:03:47;;;;;;;2.47;1.10;;;23.90;43.50;;;;;;4978361;28;20302;-72
2022/05/26 09:06:15;;;;;;;1.42;1.30;;;24.00;43.80;;;;;;4976365;28;20197;-72
2022/05/26 09:14:21;;;;;;;190.90;60.00;;;24.10;43.70;;;;;;4975364;28;20593;-72
2022/05/26 09:16:48;;;;;;;97.80;44.92;;;24.20;43.60;;;;;;4976629;28;20254;-72
2022/05/26 09:19:17;;;;;;;71.47;31.40;;;24.20;43.70;;;;;;4976190;28;20196;-71
2022/05/26 09:21:44;;;;;;;70.35;28.02;;;24.30;44.70;;;;;;4974998;28;20717;-72
2022/05/26 09:24:24;;;;;;;62.70;27.08;;;24.30;44.70;;;;;;4976229;28;20659;-72
2022/05/26 09:26:57;;;;;;;55.28;23.88;;;24.40;44.80;;;;;;4974995;28;20205;-73
2022/05/26 09:29:26;;;;;;;49.55;19.00;;;24.40;44.60;;;;;;4976233;28;20198;-71
2022/05/26 09:31:53;;;;;;;36.72;16.40;;;24.50;44.50;;;;;;4974673;28;20253;-73
2022/05/26 09:34:22;;;;;;;33.28;16.85;;;24.50;44.30;;;;;;4974205;28;20450;-72
2022/05/26 09:36:50;;;;;;;29.38;12.25;;;24.50;43.90;;;;;;4974716;28;20206;-71
2022/05/26 09:39:22;;;;;;;27.38;11.13;;;24.60;43.60;;;;;;4974969;28;20628;-73
2022/05/26 09:41:50;;;;;;;18.15;8.90;;;24.60;43.30;;;;;;4974445;28;20246;-74
2022/05/26 09:44:31;;;;;;;20.35;7.85;;;24.60;42.60;;;;;;4976098;28;20643;-72
2022/05/26 09:46:59;;;;;;;18.02;7.20;;;24.60;42.90;;;;;;4974436;28;20212;-72
2022/05/26 09:49:32;;;;;;;14.55;5.88;;;24.60;42.50;;;;;;4974598;28;20190;-73
2022/05/26 09:52:15;;;;;;;13.25;5.57;;;24.70;42.20;;;;;;4974437;28;20218;-72
2022/05/26 09:54:42;;;;;;;12.00;4.70;;;24.60;42.20;;;;;;4975545;28;20213;-72
2022/05/26 09:57:14;;;;;;;7.32;4.82;;;24.60;42.30;;;;;;4974262;28;20202;-72
2022/05/26 09:59:42;;;;;;;7.85;3.92;;;24.60;42.30;;;;;;4974320;28;20210;-73
2022/05/26 10:02:13;;;;;;;8.52;3.92;;;24.50;41.80;;;;;;4974122;28;20296;-72
2022/05/26 10:04:49;;;;;;;9.10;3.53;;;24.50;42.30;;;;;;4974973;28;20616;-72
2022/05/26 10:07:19;;;;;;;6.18;3.25;;;24.50;42.40;;;;;;4975472;28;20669;-72
2022/05/26 10:09:48;;;;;;;7.30;3.17;;;24.50;42.40;;;;;;4973902;28;20202;-72
2022/05/26 10:12:19;;;;;;;5.70;2.65;;;24.50;43.10;;;;;;5067874;23;20272;-73
2022/05/26 10:17:51;;;;;;;5.72;2.47;;;24.40;42.20;;;;;;5068664;23;20237;-72
2022/05/26 10:20:27;;;;;;;3.60;1.75;;;24.30;42.00;;;;;;4993329;28;20197;-72
2022/05/26 10:23:09;;;;;;;2.88;1.70;;;24.30;42.10;;;;;;4976578;28;20229;-72
2022/05/26 10:25:37;;;;;;;2.70;1.60;;;24.20;42.20;;;;;;4974554;28;20201;-73
2022/05/26 10:28:31;;;;;;;1.40;1.27;;;24.10;41.60;;;;;;4975228;28;20209;-72
2022/05/26 10:31:01;;;;;;;2.20;1.25;;;24.10;41.40;;;;;;4973937;28;20198;-72
2022/05/26 10:33:38;;;;;;;1.45;1.35;;;24.00;41.50;;;;;;4973721;28;20186;-72
2022/05/26 10:36:12;;;;;;;1.55;1.30;;;23.90;42.40;;;;;;4973839;28;20210;-72
2022/05/26 10:38:50;;;;;;;1.20;1.10;;;23.90;42.30;;;;;;4973791;28;20190;-72
2022/05/26 10:41:22;;;;;;;1.77;1.10;;;23.80;41.70;;;;;;4973433;28;20218;-72
2022/05/26 10:43:52;;;;;;;1.33;1.05;;;23.70;41.40;;;;;;4974944;28;20210;-73
2022/05/26 10:46:28;;;;;;;1.15;1.00;;;23.60;42.00;;;;;;4973655;28;20293;-72
2022/05/26 10:49:01;;;;;;;1.50;1.30;;;23.50;41.60;;;;;;4973787;28;20232;-72
2022/05/26 10:51:31;;;;;;;1.38;1.13;;;23.50;42.40;;;;;;4973872;28;20233;-72
2022/05/26 10:53:59;;;;;;;1.10;1.00;;;23.50;42.30;;;;;;4975238;28;20201;-71
2022/05/26 10:56:29;;;;;;;1.20;1.10;;;23.50;42.70;;;;;;4973804;28;20201;-72
2022/05/26 10:59:00;;;;;;;1.38;1.25;;;23.40;42.40;;;;;;4975091;28;20182;-71
2022/05/26 11:01:33;;;;;;;3.15;1.38;;;23.40;42.50;;;;;;4973644;28;20233;-72
2022/05/26 11:04:06;;;;;;;1.90;1.30;;;23.30;42.30;;;;;;4974861;28;20178;-72
2022/05/26 11:06:35;;;;;;;1.55;1.30;;;23.30;42.00;;;;;;4973323;28;20196;-72
2022/05/26 11:09:08;;;;;;;1.80;1.40;;;23.30;43.10;;;;;;4973147;28;20639;-72
2022/05/26 11:11:37;;;;;;;2.05;1.20;;;23.20;42.40;;;;;;4974641;28;20797;-72
2022/05/26 11:14:05;;;;;;;1.40;1.30;;;23.10;42.50;;;;;;4973293;28;20629;-72
2022/05/26 11:19:31;;;;;;;1.50;1.40;;;23.10;42.90;;;;;;4973310;28;20208;-72
2022/05/26 11:22:00;;;;;;;1.90;1.30;;;23.00;43.30;;;;;;4976903;28;20221;-72
2022/05/26 11:24:28;;;;;;;1.20;1.10;;;23.00;43.70;;;;;;4977204;28;20197;-72
2022/05/26 11:26:57;;;;;;;1.40;1.20;;;23.00;43.00;;;;;;4977096;28;20216;-72
2022/05/26 11:29:26;;;;;;;1.35;1.25;;;23.00;43.00;;;;;;4978670;28;20277;-72
2022/05/26 11:37:57;;;;;;;1.45;1.30;;;23.00;43.30;;;;;;4976401;28;20292;-72
2022/05/26 11:40:29;;;;;;;1.55;1.20;;;23.00;43.00;;;;;;4978640;28;20635;-72
2022/05/26 11:42:58;;;;;;;2.38;1.30;;;23.00;43.20;;;;;;4977007;28;20226;-73
2022/05/26 11:45:27;;;;;;;1.63;1.52;;;23.00;43.50;;;;;;4978298;28;20577;-75
2022/05/26 11:47:56;;;;;;;2.78;1.67;;;23.00;43.20;;;;;;4976850;28;20236;-72
2022/05/26 11:50:29;;;;;;;3.35;1.40;;;23.00;42.80;;;;;;4976845;28;20289;-72
2022/05/26 11:53:13;;;;;;;2.17;1.50;;;23.00;42.90;;;;;;4976996;28;20725;-73
2022/05/26 11:55:48;;;;;;;1.30;1.20;;;23.00;43.10;;;;;;4978232;28;20709;-74
2022/05/26 11:58:33;;;;;;;1.90;1.38;;;23.00;43.00;;;;;;4978607;28;20198;-73
2022/05/26 12:01:33;;;;;;;1.30;1.20;;;23.10;43.20;;;;;;4976954;28;20248;-72
2022/05/26 12:04:03;;;;;;;7.22;1.35;;;23.10;43.50;;;;;;4977825;28;20292;-72
2022/05/26 12:06:34;;;;;;;1.08;1.05;;;23.10;43.90;;;;;;4977190;28;20548;-72
2022/05/26 12:09:04;;;;;;;1.30;1.20;;;23.10;43.70;;;;;;4976787;28;20206;-73
2022/05/26 12:14:33;;;;;;;2.15;1.40;;;23.10;43.00;;;;;;5129624;23;20698;-71
2022/05/26 12:17:33;;;;;;;1.55;1.45;;;23.20;43.90;;;;;;4995765;28;20197;-71
2022/05/26 12:20:03;;;;;;;2.70;1.00;;;23.20;43.60;;;;;;4995972;28;20201;-71
2022/05/26 12:22:31;;;;;;;2.05;1.30;;;23.20;42.90;;;;;;4981382;28;20292;-71
2022/05/26 12:25:20;;;;;;;1.42;1.20;;;23.20;42.80;;;;;;4977497;28;20190;-72
2022/05/26 12:27:57;;;;;;;1.10;1.10;;;23.20;43.10;;;;;;4977634;28;20186;-72
2022/05/26 12:33:49;;;;;;;1.58;1.40;;;23.20;43.40;;;;;;4956449;28;20214;-71
2022/05/26 12:36:20;;;;;;;2.22;1.13;;;23.10;42.90;;;;;;4957926;28;20217;-71
2022/05/26 12:38:55;;;;;;;1.50;1.20;;;23.10;43.50;;;;;;4957937;29;20243;-71
2022/05/26 12:41:28;;;;;;;1.60;1.30;;;23.00;43.80;;;;;;4972553;28;20711;-72
2022/05/26 12:46:44;;;;;;;1.55;1.30;;;23.00;43.50;;;;;;5018141;23;20241;-70
2022/05/26 12:49:22;;;;;;;3.13;1.40;;;23.00;43.30;;;;;;4997797;28;20184;-67
2022/05/26 12:52:00;;;;;;;2.45;1.50;;;23.00;43.70;;;;;;4995751;28;20669;-67
2022/05/26 12:54:28;;;;;;;1.52;1.20;;;23.00;44.30;;;;;;4992656;28;20220;-66
2022/05/26 12:56:57;;;;;;;2.63;1.30;;;23.10;43.80;;;;;;4976773;28;20273;-66
2022/05/26 12:59:26;;;;;;;1.88;1.40;;;23.10;43.70;;;;;;5009129;23;20335;-68
2022/05/26 13:01:53;;;;;;;1.20;1.10;;;23.20;43.70;;;;;;5017204;23;20256;-73
2022/05/26 13:04:22;;;;;;;1.92;1.10;;;23.20;43.60;;;;;;4994785;28;20226;-67
2022/05/26 13:06:49;;;;;;;1.30;1.20;;;23.30;43.60;;;;;;4977072;28;20186;-66
2022/05/26 13:09:18;;;;;;;3.25;1.20;;;23.40;44.20;;;;;;4976511;28;20194;-66
2022/05/26 13:11:47;;;;;;;1.30;1.20;;;23.50;43.50;;;;;;4977347;28;20205;-66
2022/05/26 13:14:22;;;;;;;2.42;1.30;;;23.60;43.70;;;;;;4975186;28;20194;-67
2022/05/26 13:16:49;;;;;;;3.72;1.38;;;23.60;43.60;;;;;;4975540;28;20222;-67
2022/05/26 13:19:17;;;;;;;1.60;1.30;;;23.70;43.60;;;;;;4976919;28;20187;-67
2022/05/26 13:21:46;;;;;;;1.55;1.13;;;23.70;43.50;;;;;;4976805;28;20261;-68
2022/05/26 13:24:15;;;;;;;1.30;1.20;;;23.80;43.50;;;;;;4977461;28;20202;-67
2022/05/26 13:26:42;;;;;;;1.75;1.13;;;23.80;43.40;;;;;;4977112;28;20197;-68
2022/05/26 13:29:09;;;;;;;2.47;1.20;;;23.90;43.50;;;;;;4975804;28;20205;-68
2022/05/26 13:34:26;;;;;;;1.70;1.25;;;23.90;43.50;;;;;;4975281;28;20264;-67
2022/05/26 13:36:53;;;;;;;1.40;1.30;;;23.90;43.50;;;;;;4976169;28;20210;-69
2022/05/26 13:39:21;;;;;;;2.22;1.10;;;24.00;43.60;;;;;;4975925;28;20577;-68
2022/05/26 13:41:51;;;;;;;2.03;1.30;;;23.90;43.50;;;;;;4975987;28;20204;-68
2022/05/26 13:44:19;;;;;;;1.73;1.08;;;24.00;43.70;;;;;;4974120;28;20202;-67
2022/05/26 13:46:49;;;;;;;1.27;1.08;;;23.90;43.60;;;;;;4974745;28;20197;-68
2022/05/26 13:49:27;;;;;;;1.48;1.10;;;23.90;43.60;;;;;;4974758;28;20202;-68
2022/05/26 13:51:54;;;;;;;2.13;1.20;;;24.00;43.70;;;;;;4976186;28;20194;-68
2022/05/26 13:54:32;;;;;;;1.80;1.10;;;24.00;43.70;;;;;;4974501;28;20716;-67